Map

Track Data

SID SEASON NUMBER BASIN SUBBASIN NAME ISO_TIME NATURE LAT LON WMO_WIND WMO_PRES WMO_AGENCY TRACK_TYPE DIST2LAND LANDFALL IFLAG USA_AGENCY USA_ATCF_ID USA_LAT USA_LON USA_RECORD USA_STATUS USA_WIND USA_PRES USA_SSHS USA_R34_NE USA_R34_SE USA_R34_SW USA_R34_NW USA_R50_NE USA_R50_SE USA_R50_SW USA_R50_NW USA_R64_NE USA_R64_SE USA_R64_SW USA_R64_NW USA_POCI USA_ROCI USA_RMW USA_EYE TOKYO_LAT TOKYO_LON TOKYO_GRADE TOKYO_WIND TOKYO_PRES TOKYO_R50_DIR TOKYO_R50_LONG TOKYO_R50_SHORT TOKYO_R30_DIR TOKYO_R30_LONG TOKYO_R30_SHORT TOKYO_LAND CMA_LAT CMA_LON CMA_CAT CMA_WIND CMA_PRES HKO_LAT HKO_LON HKO_CAT HKO_WIND HKO_PRES NEWDELHI_LAT NEWDELHI_LON NEWDELHI_GRADE NEWDELHI_WIND NEWDELHI_PRES NEWDELHI_CI NEWDELHI_DP NEWDELHI_POCI REUNION_LAT REUNION_LON REUNION_TYPE REUNION_WIND REUNION_PRES REUNION_TNUM REUNION_CI REUNION_RMW REUNION_R34_NE REUNION_R34_SE REUNION_R34_SW REUNION_R34_NW REUNION_R50_NE REUNION_R50_SE REUNION_R50_SW REUNION_R50_NW REUNION_R64_NE REUNION_R64_SE REUNION_R64_SW REUNION_R64_NW BOM_LAT BOM_LON BOM_TYPE BOM_WIND BOM_PRES BOM_TNUM BOM_CI BOM_RMW BOM_R34_NE BOM_R34_SE BOM_R34_SW BOM_R34_NW BOM_R50_NE BOM_R50_SE BOM_R50_SW BOM_R50_NW BOM_R64_NE BOM_R64_SE BOM_R64_SW BOM_R64_NW BOM_ROCI BOM_POCI BOM_EYE BOM_POS_METHOD BOM_PRES_METHOD NADI_LAT NADI_LON NADI_CAT NADI_WIND NADI_PRES WELLINGTON_LAT WELLINGTON_LON WELLINGTON_WIND WELLINGTON_PRES DS824_LAT DS824_LON DS824_STAGE DS824_WIND DS824_PRES TD9636_LAT TD9636_LON TD9636_STAGE TD9636_WIND TD9636_PRES TD9635_LAT TD9635_LON TD9635_WIND TD9635_PRES TD9635_ROCI NEUMANN_LAT NEUMANN_LON NEUMANN_CLASS NEUMANN_WIND NEUMANN_PRES MLC_LAT MLC_LON MLC_CLASS MLC_WIND MLC_PRES USA_GUST BOM_GUST BOM_GUST_PER REUNION_GUST REUNION_GUST_PER USA_SEAHGT USA_SEARAD_NE USA_SEARAD_SE USA_SEARAD_SW USA_SEARAD_NW STORM_SPEED STORM_DIR
1993362S12130 1994 100 SI WA OSCAR 1993-12-28 00:00:00 NR -12.1000 129.700 20 1005 bom main 54 44 ______O_______ -1 -12.1000 129.700 20 20 1005 1.00000 3 5 5 351
1993362S12130 1994 100 SI WA OSCAR 1993-12-28 03:00:00 NR -11.8500 129.666 main 43 43 ______P_______ -1 -11.8500 129.666 20 20 1005 5 353
1993362S12130 1994 100 SI WA OSCAR 1993-12-28 06:00:00 NR -11.6100 129.625 main 55 54 ______P_______ -1 -11.6100 129.625 20 20 1005 5 349
1993362S12130 1994 100 SI WA OSCAR 1993-12-28 09:00:00 NR -11.3900 129.572 main 55 55 ______P_______ -1 -11.3900 129.572 20 20 1005 4 343
1993362S12130 1994 100 SI WA OSCAR 1993-12-28 12:00:00 NR -11.2000 129.500 20 1005 bom main 73 73 ______O_______ -1 -11.2000 129.500 20 20 1005 1.00000 3 5 4 334
1993362S12130 1994 100 SI WA OSCAR 1993-12-28 15:00:00 NR -11.0478 129.405 main 94 94 ______P_______ -1 -11.0478 129.405 20 20 1004 3 322
1993362S12130 1994 100 SI WA OSCAR 1993-12-28 18:00:00 NR -10.9325 129.287 main 110 110 ______P_______ -1 -10.9325 129.287 20 20 1004 3 308
1993362S12130 1994 100 SI WA OSCAR 1993-12-28 21:00:00 NR -10.8509 129.152 main 119 117 ______P_______ -1 -10.8509 129.152 20 20 1004 3 223
1993362S12130 1994 100 SI WA OSCAR 1993-12-29 00:00:00 TS -11.1333 129.100 20 1004 bom main 117 114 O_____O_____O_ jtwc_sh SH061994 -11.8000 129.300 20 -1 -10.8000 129.000 20 20 1004 1.00000 3 5 -11.8000 129.300 TC 20 4 203
1993362S12130 1994 100 SI WA OSCAR 1993-12-29 03:00:00 TS -11.1799 129.015 main 124 124 P_____P_____P_ SH061994 -11.5925 129.210 20 -1 -10.7673 128.819 20 21 1003 -11.5925 129.210 TC 20 2 266
1993362S12130 1994 100 SI WA OSCAR 1993-12-29 06:00:00 TS -11.1450 128.911 main 138 138 O_____P_____O_ jtwc_sh SH061994 -11.4000 129.100 20 -1 -10.7626 128.628 20 22 1003 -11.4000 129.100 TC 20 2 294
1993362S12130 1994 100 SI WA OSCAR 1993-12-29 09:00:00 TS -11.0822 128.787 main 148 148 P_____P_____P_ SH061994 -11.2350 128.958 20 -1 -10.7766 128.447 20 23 1002 -11.2350 128.958 TC 20 3 298
1993362S12130 1994 100 SI WA OSCAR 1993-12-29 12:00:00 TS -11.0000 128.633 25 1002 bom main 173 173 O_____O_____O_ jtwc_sh SH061994 -11.1000 128.800 20 -1 -10.8000 128.300 20 25 1002 1.50000 3 5 -11.1000 128.800 TC 20 3 301
1993362S12130 1994 100 SI WA OSCAR 1993-12-29 15:00:00 TS -10.9279 128.519 main 187 187 P_____P_____P_ SH061994 -10.9850 128.658 20 -1 -10.8136 128.242 20 25 1001 -10.9850 128.658 TC 20 3 299
1993362S12130 1994 100 SI WA OSCAR 1993-12-29 18:00:00 TS -10.8783 128.405 main 197 197 O_____P_____O_ jtwc_sh SH061994 -10.9000 128.500 20 -1 -10.8348 128.215 20 25 1001 -10.9000 128.500 TC 20 2 292
1993362S12130 1994 100 SI WA OSCAR 1993-12-29 21:00:00 TS -10.8395 128.290 main 211 211 P_____P_____P_ SH061994 -10.8274 128.345 20 -1 -10.8636 128.180 20 25 1000 -10.8274 128.345 TC 20 3 279
1993362S12130 1994 100 SI WA OSCAR 1993-12-30 00:00:00 TS -10.8333 128.100 25 1000 bom main 232 232 O_____O_____O_ jtwc_sh SH061994 -10.8000 128.100 20 -1 -10.9000 128.100 20 25 1000 2.00000 3 5 -10.8000 128.100 TC 20 5 268
1993362S12130 1994 100 SI WA OSCAR 1993-12-30 03:00:00 TS -10.8611 127.745 main 250 234 P_____P_____P_ SH061994 -10.8202 127.658 22 -1 -10.9429 127.921 20 26 999 -10.8202 127.658 TC 22 7 262
1993362S12130 1994 100 SI WA OSCAR 1993-12-30 06:00:00 TS -10.9309 127.365 main 234 230 O_____P_____O_ jtwc_sh SH061994 -10.9000 127.200 25 -1 -10.9926 127.695 20 27 999 -10.9000 127.200 TC 25 7 255
1993362S12130 1994 100 SI WA OSCAR 1993-12-30 09:00:00 TS -11.0386 127.090 main 233 233 P_____P_____P_ SH061994 -11.0349 126.913 25 -1 -11.0460 127.446 20 28 998 -11.0349 126.913 TC 25 5 244
1993362S12130 1994 100 SI WA OSCAR 1993-12-30 12:00:00 TS -11.1667 126.867 30 998 bom main 250 247 O_____O_____O_ jtwc_sh SH061994 -11.2000 126.700 25 -1 -11.1000 127.200 20 30 998 2.50000 3 5 -11.2000 126.700 TC 25 5 241
1993362S12130 1994 100 SI WA OSCAR 1993-12-30 15:00:00 TS -11.2852 126.644 main 257 250 P_____P_____P_ SH061994 -11.3650 126.478 25 -1 -11.1256 126.976 20 30 997 -11.3650 126.478 TC 25 5 242
1993362S12130 1994 100 SI WA OSCAR 1993-12-30 18:00:00 TS -11.3850 126.454 main 258 242 O_____P_____O_ jtwc_sh SH061994 -11.5000 126.300 25 -1 -11.1550 126.762 20 30 997 -11.5000 126.300 TC 25 4 245
1993362S12130 1994 100 SI WA OSCAR 1993-12-30 21:00:00 TS -11.4406 126.307 main 242 242 P_____P_____P_ SH061994 -11.5575 126.177 27 -1 -11.2069 126.567 20 30 996 -11.5575 126.177 TC 27 3 245
1993362S12130 1994 100 SI WA OSCAR 1993-12-31 00:00:00 TS -11.5000 126.200 30 996 bom main 242 242 O_____O_____O_ jtwc_sh SH061994 -11.6000 126.100 30 -1 -11.3000 126.400 20 30 996 2.50000 3 5 -11.6000 126.100 TC 30 2 222
1993362S12130 1994 100 SI WA OSCAR 1993-12-31 03:00:00 TS -11.6193 126.142 main 242 240 P_____P_____P_ SH061994 -11.6925 126.057 30 -1 -11.4729 126.312 20 30 996 -11.6925 126.057 TC 30 3 205
1993362S12130 1994 100 SI WA OSCAR 1993-12-31 06:00:00 TS -11.7615 126.082 main 240 234 O_____P_____O_ jtwc_sh SH061994 -11.8000 126.000 30 -1 -11.6846 126.245 20 30 997 -11.8000 126.000 TC 30 3 212
1993362S12130 1994 100 SI WA OSCAR 1993-12-31 09:00:00 TS -11.8863 125.972 main 234 224 P_____P_____P_ SH061994 -11.8775 125.880 30 -1 -11.9041 126.155 20 30 997 -11.8775 125.880 TC 30 4 225
1993362S12130 1994 100 SI WA OSCAR 1993-12-31 12:00:00 TS -12.0333 125.800 30 998 bom main 226 208 O_____O_____O_ jtwc_sh SH061994 -12.0000 125.700 30 -1 -12.1000 126.000 20 30 998 2.50000 3 5 -12.0000 125.700 TC 30 5 231
1993362S12130 1994 100 SI WA OSCAR 1993-12-31 15:00:00 TS -12.2185 125.556 main 208 194 P_____P_____P_ SH061994 -12.2275 125.480 30 -1 -12.2006 125.709 20 28 998 -12.2275 125.480 TC 30 7 234
1993362S12130 1994 100 SI WA OSCAR 1993-12-31 18:00:00 TS -12.4260 125.251 main 199 194 O_____P_____O_ jtwc_sh SH061994 -12.5000 125.200 30 -1 -12.2779 125.352 20 27 999 -12.5000 125.200 TC 30 8 238
1993362S12130 1994 100 SI WA OSCAR 1993-12-31 21:00:00 TS -12.6121 124.905 main 203 194 P_____P_____P_ SH061994 -12.7350 124.872 32 -1 -12.3662 124.969 20 26 999 -12.7350 124.872 TC 32 8 240
1993362S12130 1994 100 SI WA OSCAR 1994-01-01 00:00:00 TS -12.8333 124.533 25 1000 bom main 205 194 O_____O_____O_ jtwc_sh SH061994 -13.0000 124.500 35 0 -12.5000 124.600 20 25 1000 2.00000 3 5 -13.0000 124.500 TC 35 9 234
1993362S12130 1994 100 SI WA OSCAR 1994-01-01 03:00:00 TS -13.1428 124.157 main 199 194 P_____P_____P_ SH061994 -13.3501 124.070 35 0 -12.7283 124.332 20 25 1000 -13.3501 124.070 TC 35 9 227
1993362S12130 1994 100 SI WA OSCAR 1994-01-01 06:00:00 TS -13.4681 123.827 main 194 188 O_____P_____O_ jtwc_sh SH061994 -13.7000 123.700 35 0 -13.0043 124.080 20 25 1001 -13.7000 123.700 TC 35 8 221
1993362S12130 1994 100 SI WA OSCAR 1994-01-01 09:00:00 TS -13.7543 123.612 main 194 193 P_____P_____P_ SH061994 -13.9799 123.512 37 0 -13.3032 123.813 20 25 1001 -13.9799 123.512 TC 37 7 216
1993362S12130 1994 100 SI WA OSCAR 1994-01-01 12:00:00 TS -14.0000 123.433 25 1002 bom main 201 194 O_____O_____O_ jtwc_sh SH061994 -14.2000 123.400 40 0 -13.6000 123.500 20 25 1002 2.00000 3 5 -14.2000 123.400 TC 40 6 223
1993362S12130 1994 100 SI WA OSCAR 1994-01-01 15:00:00 TS -14.1973 123.185 main 202 201 P_____P_____P_ SH061994 -14.3650 123.250 40 0 -13.8619 123.056 20 25 1001 -14.3650 123.250 TC 40 6 233
1993362S12130 1994 100 SI WA OSCAR 1994-01-01 18:00:00 TS -14.3720 122.924 main 209 209 O_____P_____O_ jtwc_sh SH061994 -14.5000 123.100 40 0 -14.1159 122.571 20 25 1001 -14.5000 123.100 TC 40 6 234
1993362S12130 1994 100 SI WA OSCAR 1994-01-01 21:00:00 TS -14.5489 122.682 main 218 205 P_____P_____P_ SH061994 -14.6424 122.972 37 0 -14.3619 122.100 20 25 1000 -14.6424 122.972 TC 37 6 233
1993362S12130 1994 100 SI WA OSCAR 1994-01-02 00:00:00 TS -14.7333 122.433 25 1000 bom main 208 190 O_____O_____O_ jtwc_sh SH061994 -14.8000 122.800 35 0 -14.6000 121.700 20 25 1000 2.00000 3 5 -14.8000 122.800 TC 35 6 232
1993362S12130 1994 100 SI WA OSCAR 1994-01-02 03:00:00 TS -14.9298 122.173 main 194 183 P_____P_____P_ SH061994 -14.9850 122.537 35 0 -14.8195 121.445 20 26 999 -14.9850 122.537 TC 35 7 232
1993362S12130 1994 100 SI WA OSCAR 1994-01-02 06:00:00 TS -15.1448 121.889 main 189 180 O_____P_____O_ jtwc_sh SH061994 -15.2000 122.200 35 0 -15.0344 121.267 20 27 999 -15.2000 122.200 TC 35 7 232
1993362S12130 1994 100 SI WA OSCAR 1994-01-02 09:00:00 TS -15.3808 121.572 main 185 185 P_____P_____P_ SH061994 -15.4426 121.793 35 0 -15.2571 121.130 20 28 999 -15.4426 121.793 TC 35 8 231
1993362S12130 1994 100 SI WA OSCAR 1994-01-02 12:00:00 TS -15.6333 121.267 30 999 bom main 193 185 O_____O_____O_ jtwc_sh SH061994 -15.7000 121.400 35 0 -15.5000 121.000 20 30 999 2.50000 107 3 5 -15.7000 121.400 TC 35 7 226
1993362S12130 1994 100 SI WA OSCAR 1994-01-02 15:00:00 TS -15.8774 121.042 main 193 180 P_____P_____P_ SH061994 -15.9124 121.120 35 0 -15.8073 120.886 20 31 998 107 -15.9124 121.120 TC 35 7 216
1993362S12130 1994 100 SI WA OSCAR 1994-01-02 18:00:00 TS -16.1770 120.854 main 180 177 O_____P_____O_ jtwc_sh SH061994 -16.2000 120.900 35 0 -16.1309 120.762 20 32 997 107 -16.2000 120.900 TC 35 8 207
1993362S12130 1994 100 SI WA OSCAR 1994-01-02 21:00:00 TS -16.5980 120.656 main 177 177 P_____P_____P_ SH061994 -16.6775 120.693 35 0 -16.4390 120.583 20 33 996 107 -16.6775 120.693 TC 35 10 205
1993362S12130 1994 100 SI WA OSCAR 1994-01-03 00:00:00 TS -17.0333 120.433 35 995 bom main 192 188 O_____O_____O_ jtwc_sh SH061994 -17.2000 120.500 35 0 -16.7000 120.300 30 35 995 3.00000 107 3 5 -17.2000 120.500 TC 35 9 210
1993362S12130 1994 100 SI WA OSCAR 1994-01-03 03:00:00 TS -17.4066 120.167 35 995 bom main 202 202 P_____O_____P_ SH061994 -17.6600 120.300 35 0 -16.9000 119.900 30 35 995 3.00000 107 3 5 -17.6600 120.300 TC 35 8 217
1993362S12130 1994 100 SI WA OSCAR 1994-01-03 06:00:00 TS -17.7000 119.900 35 995 bom main 215 215 O_____O_____O_ jtwc_sh SH061994 -18.0000 120.100 35 0 -17.1000 119.500 30 35 995 3.00000 107 3 5 -18.0000 120.100 TC 35 7 236
1993362S12130 1994 100 SI WA OSCAR 1994-01-03 09:00:00 TS -17.7733 119.605 35 995 bom main 239 239 P_____O_____P_ SH061994 -18.1599 119.907 35 0 -17.0000 119.000 30 35 995 3.00000 107 3 5 -18.1599 119.907 TC 35 6 263
1993362S12130 1994 100 SI WA OSCAR 1994-01-03 12:00:00 TS -17.7667 119.300 30 996 bom main 251 251 O_____O_____O_ jtwc_sh SH061994 -18.2000 119.700 35 0 -16.9000 118.500 20 30 996 2.50000 107 3 5 -18.2000 119.700 TC 35 5 265
1993362S12130 1994 100 SI WA OSCAR 1994-01-03 15:00:00 TS -17.8167 119.055 main 256 247 P_____P_____P_ SH061994 -18.2222 119.503 35 0 -17.0055 118.159 20 30 997 107 -18.2222 119.503 TC 35 5 259
1993362S12130 1994 100 SI WA OSCAR 1994-01-03 18:00:00 TS -17.8667 118.767 30 998 bom main 248 248 O_____O_____O_ jtwc_sh SH061994 -18.2000 119.200 35 0 -17.2000 117.900 20 30 998 2.50000 107 3 5 -18.2000 119.200 TC 35 7 264
1993362S12130 1994 100 SI WA OSCAR 1994-01-03 21:00:00 TS -17.8895 118.313 main 260 260 P_____P_____P_ SH061994 -18.1728 118.673 35 0 -17.3228 117.593 20 27 999 -18.1728 118.673 TC 35 9 270
1993362S12130 1994 100 SI WA OSCAR 1994-01-04 00:00:00 TS -17.8667 117.833 25 1000 bom main 281 281 O_____O_____O_ jtwc_sh SH061994 -18.1000 118.100 35 0 -17.4000 117.300 20 25 1000 2.00000 3 5 -18.1000 118.100 TC 35 8 278
1993362S12130 1994 100 SI WA OSCAR 1994-01-04 03:00:00 TS -17.7778 117.465 main 297 297 P_____P_____P_ SH061994 -17.9573 117.677 32 -1 -17.4189 117.039 20 25 1000 -17.9573 117.677 TC 32 7 287
1993362S12130 1994 100 SI WA OSCAR 1994-01-04 06:00:00 TS -17.6606 117.135 main 319 319 O_____P_____O_ jtwc_sh SH061994 -17.8000 117.300 30 -1 -17.3817 116.806 20 25 1000 -17.8000 117.300 TC 30 7 288
1993362S12130 1994 100 SI WA OSCAR 1994-01-04 09:00:00 TS -17.5629 116.788 main 335 335 P_____P_____P_ SH061994 -17.6925 116.885 27 -1 -17.3036 116.595 20 25 1000 -17.6925 116.885 TC 27 7 287
1993362S12130 1994 100 SI WA OSCAR 1994-01-04 12:00:00 TS -17.4667 116.467 25 1000 bom main 347 347 O_____O_____O_ jtwc_sh SH061994 -17.6000 116.500 25 -1 -17.2000 116.400 20 25 1000 2.00000 3 5 -17.6000 116.500 TC 25 6 289
1993362S12130 1994 100 SI WA OSCAR 1994-01-04 15:00:00 TS -17.3669 116.177 main 361 361 P_____P_____P_ SH061994 -17.5000 116.163 22 -1 -17.1009 116.206 20 25 1000 -17.5000 116.163 TC 22 5 292
1993362S12130 1994 100 SI WA OSCAR 1994-01-04 18:00:00 TS -17.2602 115.942 main 378 378 O_____P_____O_ jtwc_sh SH061994 -17.4000 115.900 20 -1 -16.9806 116.026 20 25 1000 -17.4000 115.900 TC 20 4 299
1993362S12130 1994 100 SI WA OSCAR 1994-01-04 21:00:00 TS -17.1483 115.771 main 402 402 P_____P_____P_ SH061994 -17.2999 115.728 20 -1 -16.8450 115.858 20 25 1000 -17.2999 115.728 TC 20 4 307
1993362S12130 1994 100 SI WA OSCAR 1994-01-05 00:00:00 TS -17.0333 115.633 25 1000 bom main 419 419 O_____O_____O_ jtwc_sh SH061994 -17.2000 115.600 20 -1 -16.7000 115.700 20 25 1000 2.00000 3 5 -17.2000 115.600 TC 20 4 313
1993362S12130 1994 100 SI WA OSCAR 1994-01-05 03:00:00 TS -16.8934 115.483 main 432 432 P_____P_____P_ SH061994 -17.0925 115.442 20 -1 -16.4953 115.564 20 25 1000 -17.0925 115.442 TC 20 4 309
1993362S12130 1994 100 SI WA OSCAR 1994-01-05 06:00:00 TS -16.8000 115.333 25 1000 bom main 449 449 O_____O_____O_ jtwc_sh SH061994 -17.0000 115.300 20 -1 -16.4000 115.400 20 25 1000 2.00000 3 5 -17.0000 115.300 TC 20 3 287
1993362S12130 1994 100 SI WA OSCAR 1994-01-05 09:00:00 TS -16.8100 115.193 main 453 446 P_____P_____P_ SH061994 -16.9350 115.208 20 -1 -16.5601 115.164 20 25 1000 -16.9350 115.208 TC 20 3 257
1993362S12130 1994 100 SI WA OSCAR 1994-01-05 12:00:00 TS -16.8667 115.033 25 1000 bom main 450 450 O_____O_____O_ jtwc_sh SH061994 -16.9000 115.100 20 -1 -16.8000 114.900 20 25 1000 2.00000 3 5 -16.9000 115.100 TC 20 3 257
1993362S12130 1994 100 SI WA OSCAR 1994-01-05 15:00:00 TS -16.8889 114.844 main 459 459 P_____P_____P_ SH061994 -16.8850 114.930 20 -1 -16.8969 114.672 20 23 1001 -16.8850 114.930 TC 20 4 264
1993362S12130 1994 100 SI WA OSCAR 1994-01-05 18:00:00 TS -16.9094 114.618 main 469 469 O_____P_____O_ jtwc_sh SH061994 -16.9000 114.700 20 -1 -16.9282 114.453 20 22 1002 -16.9000 114.700 TC 20 5 264
1993362S12130 1994 100 SI WA OSCAR 1994-01-05 21:00:00 TS -16.9351 114.359 main 479 479 P_____P_____P_ SH061994 -16.9425 114.423 20 -1 -16.9204 114.233 20 21 1003 -16.9425 114.423 TC 20 5 264
1993362S12130 1994 100 SI WA OSCAR 1994-01-06 00:00:00 TS -16.9667 114.067 20 1005 bom main 486 486 O_____O_____O_ jtwc_sh SH061994 -17.0000 114.100 20 -1 -16.9000 114.000 20 20 1005 1.50000 3 5 -17.0000 114.100 TC 20 6 263
1993362S12130 1994 100 SI WA OSCAR 1994-01-06 03:00:00 TS -17.0097 113.745 main 509 509 P_____P_____P_ SH061994 -17.0650 113.750 20 -1 -16.8991 113.735 20 20 1005 -17.0650 113.750 TC 20 6 264
1993362S12130 1994 100 SI WA OSCAR 1994-01-06 06:00:00 TS -17.0308 113.419 main 526 526 O_____P_____O_ jtwc_sh SH061994 -17.1000 113.400 20 -1 -16.8925 113.457 20 20 1005 -17.1000 113.400 TC 20 6 270
1993362S12130 1994 100 SI WA OSCAR 1994-01-06 09:00:00 TS -17.0065 113.125 main 544 544 P_____P_____P_ SH061994 -17.0649 113.100 20 -1 -16.8897 113.176 20 20 1005 -17.0649 113.100 TC 20 6 277
1993362S12130 1994 100 SI WA OSCAR 1994-01-06 12:00:00 TS -16.9667 112.833 20 1005 bom main 562 562 O_____O_____O_ jtwc_sh SH061994 -17.0000 112.800 20 -1 -16.9000 112.900 20 20 1005 1.50000 3 5 -17.0000 112.800 TC 20 6 276
1993362S12130 1994 100 SI WA OSCAR 1994-01-06 15:00:00 TS -16.9429 112.505 main 580 580 P_____P_____P_ SH061994 -16.9425 112.450 20 -1 -16.9438 112.615 20 20 1005 -16.9425 112.450 TC 20 6 273
1993362S12130 1994 100 SI WA OSCAR 1994-01-06 18:00:00 TS -16.9400 112.196 main 590 583 O_____P_____O_ jtwc_sh SH061994 -16.9000 112.100 20 -1 -17.0001 112.340 20 20 1005 -16.9000 112.100 TC 20 5 267
1993362S12130 1994 100 SI WA OSCAR 1994-01-06 21:00:00 TS -16.9732 111.942 main 590 590 P_____P_____P_ SH061994 -16.8900 111.788 20 -1 -17.0563 112.096 20 20 1005 -16.8900 111.788 TC 20 4 257
1993362S12130 1994 100 SI WA OSCAR 1994-01-07 00:00:00 TS -17.0333 111.767 20 1005 bom main 594 584 O_____O_____O_ jtwc_sh SH061994 -16.9000 111.500 20 -1 -17.1000 111.900 20 20 1005 1.50000 3 5 -16.9000 111.500 TC 20 2 227
1993362S12130 1994 100 SI WA OSCAR 1994-01-07 03:00:00 NR -17.1182 111.775 main 584 584 ______P_______ SH061994 -1 -17.1182 111.775 20 20 1005 TC 1 217
1993362S12130 1994 100 SI WA OSCAR 1994-01-07 06:00:00 NR -17.1223 111.697 main 588 588 ______P_______ -1 -17.1223 111.697 20 20 1005 1 271
1993362S12130 1994 100 SI WA OSCAR 1994-01-07 09:00:00 NR -17.1152 111.647 main 592 592 ______P_______ -1 -17.1152 111.647 20 20 1005 1 283
1993362S12130 1994 100 SI WA OSCAR 1994-01-07 12:00:00 NR -17.1000 111.600 20 1005 bom main 592 592 ______O_______ -1 -17.1000 111.600 20 20 1005 1.50000 3 5 1 281
1993362S12130 1994 100 SI WA OSCAR 1994-01-07 15:00:00 NR -17.0983 111.558 main 592 592 ______P_______ -1 -17.0983 111.558 20 20 1005 1 278
1993362S12130 1994 100 SI WA OSCAR 1994-01-07 18:00:00 NR -17.0872 111.510 main 597 597 ______P_______ -1 -17.0872 111.510 20 20 1005 1 289
1993362S12130 1994 100 SI WA OSCAR 1994-01-07 21:00:00 NR -17.0576 111.433 main 602 602 ______P_______ -1 -17.0576 111.433 20 20 1005 2 293
1993362S12130 1994 100 SI WA OSCAR 1994-01-08 00:00:00 NR -17.0000 111.300 20 1005 bom main 616 616 ______O_______ -1 -17.0000 111.300 20 20 1005 1.50000 3 5 4 294
1993362S12130 1994 100 SI WA OSCAR 1994-01-08 03:00:00 NR -16.9040 111.070 main 636 636 ______P_______ -1 -16.9040 111.070 20 20 1005 5 294
1993362S12130 1994 100 SI WA OSCAR 1994-01-08 06:00:00 NR -16.7804 110.787 main 661 661 ______P_______ -1 -16.7804 110.787 20 20 1005 6 295
1993362S12130 1994 100 SI WA OSCAR 1994-01-08 09:00:00 NR -16.6415 110.486 main 697 697 ______P_______ -1 -16.6415 110.486 20 20 1005 6 297
1993362S12130 1994 100 SI WA OSCAR 1994-01-08 12:00:00 NR -16.5000 110.200 20 1005 bom main 723 723 ______O_______ -1 -16.5000 110.200 20 20 1005 1.50000 3 5 6 298
1993362S12130 1994 100 SI WA OSCAR 1994-01-08 15:00:00 NR -16.3661 109.956 main 744 744 ______P_______ -1 -16.3661 109.956 20 20 1005 5 301
1993362S12130 1994 100 SI WA OSCAR 1994-01-08 18:00:00 NR -16.2398 109.750 main 775 775 ______P_______ -1 -16.2398 109.750 20 20 1006 4 304
1993362S12130 1994 100 SI WA OSCAR 1994-01-08 21:00:00 NR -16.1187 109.569 main 796 796 ______P_______ -1 -16.1187 109.569 20 20 1007 4 305
1993362S12130 1994 100 SI WA OSCAR 1994-01-09 00:00:00 NR -16.0000 109.400 20 1008 bom main 818 ______O_______ -1 -16.0000 109.400 20 20 1008 1.50000 3 5 4 306

About IBTrACS Database

This database is a web-friendly format of International Best Track Archive for Climate Stewardship (IBTrACS), a global best track data archive curated by NOAA dating back to 1842.

Updated: 2021-10-19